sensor_id;sensor_type;location;lat;lon;timestamp;temperature;humidity
46137;DHT22;31871;49.418;8.752;2022-08-19T00:01:48;22.20;99.90
46137;DHT22;31871;49.418;8.752;2022-08-19T00:04:16;22.10;99.90
46137;DHT22;31871;49.418;8.752;2022-08-19T00:06:43;22.10;99.90
46137;DHT22;31871;49.418;8.752;2022-08-19T00:09:11;22.00;99.90
46137;DHT22;31871;49.418;8.752;2022-08-19T00:11:38;21.90;99.90
46137;DHT22;31871;49.418;8.752;2022-08-19T00:14:06;22.00;99.90
46137;DHT22;31871;49.418;8.752;2022-08-19T00:16:32;22.00;99.90
46137;DHT22;31871;49.418;8.752;2022-08-19T00:18:58;21.90;99.90
46137;DHT22;31871;49.418;8.752;2022-08-19T00:21:25;21.80;99.90
46137;DHT22;31871;49.418;8.752;2022-08-19T00:23:52;21.70;99.90
46137;DHT22;31871;49.418;8.752;2022-08-19T00:26:18;21.60;99.90
46137;DHT22;31871;49.418;8.752;2022-08-19T00:28:44;21.60;99.90
46137;DHT22;31871;49.418;8.752;2022-08-19T00:31:10;21.70;99.90
46137;DHT22;31871;49.418;8.752;2022-08-19T00:33:36;21.70;99.90
46137;DHT22;31871;49.418;8.752;2022-08-19T00:36:06;21.80;99.90
46137;DHT22;31871;49.418;8.752;2022-08-19T00:38:34;21.70;99.90
46137;DHT22;31871;49.418;8.752;2022-08-19T00:41:00;21.80;99.90
46137;DHT22;31871;49.418;8.752;2022-08-19T00:43:26;21.90;99.90
46137;DHT22;31871;49.418;8.752;2022-08-19T00:45:53;21.80;99.90
46137;DHT22;31871;49.418;8.752;2022-08-19T00:48:19;21.70;99.90
46137;DHT22;31871;49.418;8.752;2022-08-19T00:50:46;21.60;99.90
46137;DHT22;31871;49.418;8.752;2022-08-19T00:53:15;21.50;99.90
46137;DHT22;31871;49.418;8.752;2022-08-19T00:55:45;21.50;99.90
46137;DHT22;31871;49.418;8.752;2022-08-19T00:58:14;21.50;99.90
46137;DHT22;31871;49.418;8.752;2022-08-19T01:00:40;21.60;99.90
46137;DHT22;31871;49.418;8.752;2022-08-19T01:03:11;21.60;99.90
46137;DHT22;31871;49.418;8.752;2022-08-19T01:05:41;21.60;99.90
46137;DHT22;31871;49.418;8.752;2022-08-19T01:08:07;21.70;99.90
46137;DHT22;31871;49.418;8.752;2022-08-19T01:10:39;21.90;99.90
46137;DHT22;31871;49.418;8.752;2022-08-19T01:13:05;22.00;99.90
46137;DHT22;31871;49.418;8.752;2022-08-19T01:15:34;22.20;99.90
46137;DHT22;31871;49.418;8.752;2022-08-19T01:18:06;22.10;99.90
46137;DHT22;31871;49.418;8.752;2022-08-19T01:20:32;22.00;99.90
46137;DHT22;31871;49.418;8.752;2022-08-19T01:23:00;22.00;99.90
46137;DHT22;31871;49.418;8.752;2022-08-19T01:25:49;21.90;99.90
46137;DHT22;31871;49.418;8.752;2022-08-19T01:28:22;21.70;99.90
46137;DHT22;31871;49.418;8.752;2022-08-19T01:30:49;21.70;99.90
46137;DHT22;31871;49.418;8.752;2022-08-19T01:33:15;21.80;99.90
46137;DHT22;31871;49.418;8.752;2022-08-19T01:35:41;21.90;99.90
46137;DHT22;31871;49.418;8.752;2022-08-19T01:38:10;21.90;99.90
46137;DHT22;31871;49.418;8.752;2022-08-19T01:40:43;22.00;99.90
46137;DHT22;31871;49.418;8.752;2022-08-19T01:43:09;22.10;99.90
46137;DHT22;31871;49.418;8.752;2022-08-19T01:45:35;22.00;99.90
46137;DHT22;31871;49.418;8.752;2022-08-19T01:48:03;21.90;99.90
46137;DHT22;31871;49.418;8.752;2022-08-19T01:50:31;21.90;99.90
46137;DHT22;31871;49.418;8.752;2022-08-19T01:52:58;22.00;99.90
46137;DHT22;31871;49.418;8.752;2022-08-19T01:55:25;21.90;99.90
46137;DHT22;31871;49.418;8.752;2022-08-19T01:57:58;21.90;99.90
46137;DHT22;31871;49.418;8.752;2022-08-19T02:00:26;21.80;99.90
46137;DHT22;31871;49.418;8.752;2022-08-19T02:02:53;21.80;99.90
46137;DHT22;31871;49.418;8.752;2022-08-19T02:05:18;21.80;99.90
46137;DHT22;31871;49.418;8.752;2022-08-19T02:07:46;21.90;99.90
46137;DHT22;31871;49.418;8.752;2022-08-19T02:10:17;21.90;99.90
46137;DHT22;31871;49.418;8.752;2022-08-19T02:12:43;21.90;99.90
46137;DHT22;31871;49.418;8.752;2022-08-19T02:15:09;21.90;99.90
46137;DHT22;31871;49.418;8.752;2022-08-19T02:17:36;21.90;99.90
46137;DHT22;31871;49.418;8.752;2022-08-19T02:20:03;21.80;99.90
46137;DHT22;31871;49.418;8.752;2022-08-19T02:22:28;21.90;99.90
46137;DHT22;31871;49.418;8.752;2022-08-19T02:24:55;21.90;99.90
46137;DHT22;31871;49.418;8.752;2022-08-19T02:27:22;21.90;99.90
46137;DHT22;31871;49.418;8.752;2022-08-19T02:29:48;21.80;99.90
46137;DHT22;31871;49.418;8.752;2022-08-19T02:32:15;21.80;99.90
46137;DHT22;31871;49.418;8.752;2022-08-19T02:34:40;21.70;99.90
46137;DHT22;31871;49.418;8.752;2022-08-19T02:37:06;21.70;99.90
46137;DHT22;31871;49.418;8.752;2022-08-19T02:39:52;21.80;99.90
46137;DHT22;31871;49.418;8.752;2022-08-19T02:42:18;21.70;99.90
46137;DHT22;31871;49.418;8.752;2022-08-19T02:44:44;21.70;99.90
46137;DHT22;31871;49.418;8.752;2022-08-19T02:47:10;21.60;99.90
46137;DHT22;31871;49.418;8.752;2022-08-19T02:49:35;21.60;99.90
46137;DHT22;31871;49.418;8.752;2022-08-19T02:52:01;21.60;99.90
46137;DHT22;31871;49.418;8.752;2022-08-19T02:54:27;21.60;99.90
46137;DHT22;31871;49.418;8.752;2022-08-19T02:56:53;21.60;99.90
46137;DHT22;31871;49.418;8.752;2022-08-19T02:59:19;21.60;99.90
46137;DHT22;31871;49.418;8.752;2022-08-19T03:01:45;21.60;99.90
46137;DHT22;31871;49.418;8.752;2022-08-19T03:04:14;21.60;99.90
46137;DHT22;31871;49.418;8.752;2022-08-19T03:06:43;21.70;99.90
46137;DHT22;31871;49.418;8.752;2022-08-19T03:09:10;21.70;99.90
46137;DHT22;31871;49.418;8.752;2022-08-19T03:11:36;21.70;99.90
46137;DHT22;31871;49.418;8.752;2022-08-19T03:14:03;21.70;99.90
46137;DHT22;31871;49.418;8.752;2022-08-19T03:16:34;21.70;99.90
46137;DHT22;31871;49.418;8.752;2022-08-19T03:19:02;21.70;99.90
46137;DHT22;31871;49.418;8.752;2022-08-19T03:21:30;21.60;99.90
46137;DHT22;31871;49.418;8.752;2022-08-19T03:23:58;21.60;99.90
46137;DHT22;31871;49.418;8.752;2022-08-19T03:26:24;21.60;99.90
46137;DHT22;31871;49.418;8.752;2022-08-19T03:28:49;21.50;99.90
46137;DHT22;31871;49.418;8.752;2022-08-19T03:31:20;21.60;99.90
46137;DHT22;31871;49.418;8.752;2022-08-19T03:33:48;21.60;99.90
46137;DHT22;31871;49.418;8.752;2022-08-19T03:36:23;21.60;99.90
46137;DHT22;31871;49.418;8.752;2022-08-19T03:38:51;21.60;99.90
46137;DHT22;31871;49.418;8.752;2022-08-19T03:41:23;21.60;99.90
46137;DHT22;31871;49.418;8.752;2022-08-19T03:43:49;21.70;99.90
46137;DHT22;31871;49.418;8.752;2022-08-19T03:46:18;21.70;99.90
46137;DHT22;31871;49.418;8.752;2022-08-19T03:48:46;21.50;99.90
46137;DHT22;31871;49.418;8.752;2022-08-19T03:51:18;21.60;99.90
46137;DHT22;31871;49.418;8.752;2022-08-19T03:53:44;21.50;99.90
46137;DHT22;31871;49.418;8.752;2022-08-19T03:56:10;21.30;99.90
46137;DHT22;31871;49.418;8.752;2022-08-19T03:58:36;21.30;99.90
46137;DHT22;31871;49.418;8.752;2022-08-19T04:01:11;21.10;99.90
46137;DHT22;31871;49.418;8.752;2022-08-19T04:03:37;21.10;99.90
46137;DHT22;31871;49.418;8.752;2022-08-19T04:06:15;21.10;99.90
46137;DHT22;31871;49.418;8.752;2022-08-19T04:08:43;21.20;99.90
46137;DHT22;31871;49.418;8.752;2022-08-19T04:11:11;21.20;99.90
46137;DHT22;31871;49.418;8.752;2022-08-19T04:13:37;21.20;99.90
46137;DHT22;31871;49.418;8.752;2022-08-19T04:16:04;21.30;99.90
46137;DHT22;31871;49.418;8.752;2022-08-19T04:18:30;21.30;99.90
46137;DHT22;31871;49.418;8.752;2022-08-19T04:20:56;21.40;99.90
46137;DHT22;31871;49.418;8.752;2022-08-19T04:23:22;21.40;99.90
46137;DHT22;31871;49.418;8.752;2022-08-19T04:25:48;21.40;99.90
46137;DHT22;31871;49.418;8.752;2022-08-19T04:28:14;21.30;99.90
46137;DHT22;31871;49.418;8.752;2022-08-19T04:30:45;21.10;99.90
46137;DHT22;31871;49.418;8.752;2022-08-19T04:33:13;21.00;99.90
46137;DHT22;31871;49.418;8.752;2022-08-19T04:35:44;21.00;99.90
46137;DHT22;31871;49.418;8.752;2022-08-19T04:38:10;20.90;99.90
46137;DHT22;31871;49.418;8.752;2022-08-19T04:40:47;21.00;99.90
46137;DHT22;31871;49.418;8.752;2022-08-19T04:43:32;21.10;99.90
46137;DHT22;31871;49.418;8.752;2022-08-19T04:46:07;21.20;99.90
46137;DHT22;31871;49.418;8.752;2022-08-19T04:48:35;21.30;99.90
46137;DHT22;31871;49.418;8.752;2022-08-19T04:51:01;21.40;99.90
46137;DHT22;31871;49.418;8.752;2022-08-19T04:53:33;21.30;99.90
46137;DHT22;31871;49.418;8.752;2022-08-19T04:56:03;21.30;99.90
46137;DHT22;31871;49.418;8.752;2022-08-19T04:58:29;21.30;99.90
46137;DHT22;31871;49.418;8.752;2022-08-19T05:00:55;21.30;99.90
46137;DHT22;31871;49.418;8.752;2022-08-19T05:03:21;21.30;99.90
46137;DHT22;31871;49.418;8.752;2022-08-19T05:05:48;21.20;99.90
46137;DHT22;31871;49.418;8.752;2022-08-19T05:08:16;21.10;99.90
46137;DHT22;31871;49.418;8.752;2022-08-19T05:10:46;21.00;99.90
46137;DHT22;31871;49.418;8.752;2022-08-19T05:13:13;20.90;99.90
46137;DHT22;31871;49.418;8.752;2022-08-19T05:15:39;20.90;99.90
46137;DHT22;31871;49.418;8.752;2022-08-19T05:18:04;20.90;99.90
46137;DHT22;31871;49.418;8.752;2022-08-19T05:20:49;20.90;99.90
46137;DHT22;31871;49.418;8.752;2022-08-19T05:23:33;20.90;99.90
46137;DHT22;31871;49.418;8.752;2022-08-19T05:25:58;20.80;99.90
46137;DHT22;31871;49.418;8.752;2022-08-19T05:28:24;20.80;99.90
46137;DHT22;31871;49.418;8.752;2022-08-19T05:30:49;20.90;99.90
46137;DHT22;31871;49.418;8.752;2022-08-19T05:33:17;20.90;99.90
46137;DHT22;31871;49.418;8.752;2022-08-19T05:35:43;20.80;99.90
46137;DHT22;31871;49.418;8.752;2022-08-19T05:38:09;20.90;99.90
46137;DHT22;31871;49.418;8.752;2022-08-19T05:40:37;20.90;99.90
46137;DHT22;31871;49.418;8.752;2022-08-19T05:43:05;20.90;99.90
46137;DHT22;31871;49.418;8.752;2022-08-19T05:45:31;20.90;99.90
46137;DHT22;31871;49.418;8.752;2022-08-19T05:47:56;20.90;99.90
46137;DHT22;31871;49.418;8.752;2022-08-19T05:50:24;21.00;99.90
46137;DHT22;31871;49.418;8.752;2022-08-19T05:52:50;21.10;99.90
46137;DHT22;31871;49.418;8.752;2022-08-19T05:55:16;21.20;99.90
46137;DHT22;31871;49.418;8.752;2022-08-19T05:57:41;21.40;99.90
46137;DHT22;31871;49.418;8.752;2022-08-19T06:00:07;21.50;99.90
46137;DHT22;31871;49.418;8.752;2022-08-19T06:02:36;21.50;99.90
46137;DHT22;31871;49.418;8.752;2022-08-19T06:05:03;21.40;99.90
46137;DHT22;31871;49.418;8.752;2022-08-19T06:07:29;21.30;99.90
46137;DHT22;31871;49.418;8.752;2022-08-19T06:09:55;21.30;99.90
46137;DHT22;31871;49.418;8.752;2022-08-19T06:12:20;21.30;99.90
46137;DHT22;31871;49.418;8.752;2022-08-19T06:14:55;21.30;99.90
46137;DHT22;31871;49.418;8.752;2022-08-19T06:17:21;21.40;99.90
46137;DHT22;31871;49.418;8.752;2022-08-19T06:19:50;21.40;99.90
46137;DHT22;31871;49.418;8.752;2022-08-19T06:22:15;21.30;99.90
46137;DHT22;31871;49.418;8.752;2022-08-19T06:24:41;21.40;99.90
46137;DHT22;31871;49.418;8.752;2022-08-19T06:27:07;21.50;99.90
46137;DHT22;31871;49.418;8.752;2022-08-19T06:29:33;21.70;99.90
46137;DHT22;31871;49.418;8.752;2022-08-19T06:32:01;21.70;99.90
46137;DHT22;31871;49.418;8.752;2022-08-19T06:34:29;21.80;99.90
46137;DHT22;31871;49.418;8.752;2022-08-19T06:36:56;21.90;99.90
46137;DHT22;31871;49.418;8.752;2022-08-19T06:39:25;21.90;99.90
46137;DHT22;31871;49.418;8.752;2022-08-19T06:41:57;21.90;99.90
46137;DHT22;31871;49.418;8.752;2022-08-19T06:44:25;22.00;99.90
46137;DHT22;31871;49.418;8.752;2022-08-19T06:46:51;21.90;99.90
46137;DHT22;31871;49.418;8.752;2022-08-19T06:49:18;22.00;99.90
46137;DHT22;31871;49.418;8.752;2022-08-19T06:51:46;22.00;99.90
46137;DHT22;31871;49.418;8.752;2022-08-19T06:54:13;22.00;99.90
46137;DHT22;31871;49.418;8.752;2022-08-19T06:56:39;22.00;99.90
46137;DHT22;31871;49.418;8.752;2022-08-19T06:59:11;22.00;99.90
46137;DHT22;31871;49.418;8.752;2022-08-19T07:01:43;21.90;99.90
46137;DHT22;31871;49.418;8.752;2022-08-19T07:04:11;22.00;99.90
46137;DHT22;31871;49.418;8.752;2022-08-19T07:06:37;22.00;99.90
46137;DHT22;31871;49.418;8.752;2022-08-19T07:09:04;22.00;99.90
46137;DHT22;31871;49.418;8.752;2022-08-19T07:11:30;22.00;99.90
46137;DHT22;31871;49.418;8.752;2022-08-19T07:13:58;21.90;99.90
46137;DHT22;31871;49.418;8.752;2022-08-19T07:16:24;21.70;99.90
46137;DHT22;31871;49.418;8.752;2022-08-19T07:18:50;21.60;99.90
46137;DHT22;31871;49.418;8.752;2022-08-19T07:21:20;21.70;99.90
46137;DHT22;31871;49.418;8.752;2022-08-19T07:23:47;21.70;99.90
46137;DHT22;31871;49.418;8.752;2022-08-19T07:26:20;21.70;99.90
46137;DHT22;31871;49.418;8.752;2022-08-19T07:28:49;21.70;99.90
46137;DHT22;31871;49.418;8.752;2022-08-19T07:31:21;21.80;99.90
46137;DHT22;31871;49.418;8.752;2022-08-19T07:33:48;21.80;99.90
46137;DHT22;31871;49.418;8.752;2022-08-19T07:36:17;21.70;99.90
46137;DHT22;31871;49.418;8.752;2022-08-19T07:38:46;21.70;99.90
46137;DHT22;31871;49.418;8.752;2022-08-19T07:41:17;21.70;99.90
46137;DHT22;31871;49.418;8.752;2022-08-19T07:43:43;21.70;99.90
46137;DHT22;31871;49.418;8.752;2022-08-19T07:46:10;21.70;99.90
46137;DHT22;31871;49.418;8.752;2022-08-19T07:48:37;21.70;99.90
46137;DHT22;31871;49.418;8.752;2022-08-19T07:51:08;21.70;99.90
46137;DHT22;31871;49.418;8.752;2022-08-19T07:53:35;21.80;99.90
46137;DHT22;31871;49.418;8.752;2022-08-19T07:56:02;21.70;99.90
46137;DHT22;31871;49.418;8.752;2022-08-19T07:58:35;21.70;99.90
46137;DHT22;31871;49.418;8.752;2022-08-19T08:01:02;21.80;99.90
46137;DHT22;31871;49.418;8.752;2022-08-19T08:03:29;21.80;99.90
46137;DHT22;31871;49.418;8.752;2022-08-19T08:06:14;21.90;99.90
46137;DHT22;31871;49.418;8.752;2022-08-19T08:08:59;21.90;99.90
46137;DHT22;31871;49.418;8.752;2022-08-19T08:11:43;22.10;99.90
46137;DHT22;31871;49.418;8.752;2022-08-19T08:14:15;22.20;99.90
46137;DHT22;31871;49.418;8.752;2022-08-19T08:16:41;22.20;99.90
46137;DHT22;31871;49.418;8.752;2022-08-19T08:19:09;22.20;99.90
46137;DHT22;31871;49.418;8.752;2022-08-19T08:21:35;22.30;99.90
46137;DHT22;31871;49.418;8.752;2022-08-19T08:24:00;22.40;99.90
46137;DHT22;31871;49.418;8.752;2022-08-19T08:26:26;22.50;99.90
46137;DHT22;31871;49.418;8.752;2022-08-19T08:28:53;22.30;99.90
46137;DHT22;31871;49.418;8.752;2022-08-19T08:31:19;22.30;99.90
46137;DHT22;31871;49.418;8.752;2022-08-19T08:33:46;22.40;99.90
46137;DHT22;31871;49.418;8.752;2022-08-19T08:36:12;22.50;99.90
46137;DHT22;31871;49.418;8.752;2022-08-19T08:38:42;22.50;99.90
46137;DHT22;31871;49.418;8.752;2022-08-19T08:41:19;22.60;99.90
46137;DHT22;31871;49.418;8.752;2022-08-19T08:43:49;22.90;99.90
46137;DHT22;31871;49.418;8.752;2022-08-19T08:46:24;23.10;99.90
46137;DHT22;31871;49.418;8.752;2022-08-19T08:49:15;23.60;99.90
46137;DHT22;31871;49.418;8.752;2022-08-19T08:51:46;23.70;99.90
46137;DHT22;31871;49.418;8.752;2022-08-19T08:54:17;23.60;99.90
46137;DHT22;31871;49.418;8.752;2022-08-19T08:56:44;23.50;99.90
46137;DHT22;31871;49.418;8.752;2022-08-19T08:59:31;23.50;99.90
46137;DHT22;31871;49.418;8.752;2022-08-19T09:01:59;23.40;99.90
46137;DHT22;31871;49.418;8.752;2022-08-19T09:04:24;23.30;99.90
46137;DHT22;31871;49.418;8.752;2022-08-19T09:09:49;23.60;99.90
46137;DHT22;31871;49.418;8.752;2022-08-19T09:12:33;23.70;99.90
46137;DHT22;31871;49.418;8.752;2022-08-19T09:15:07;23.90;99.90
46137;DHT22;31871;49.418;8.752;2022-08-19T09:17:34;23.90;99.90
46137;DHT22;31871;49.418;8.752;2022-08-19T09:22:32;24.50;99.90
46137;DHT22;31871;49.418;8.752;2022-08-19T09:24:59;24.80;99.90
46137;DHT22;31871;49.418;8.752;2022-08-19T09:27:26;24.80;99.90
46137;DHT22;31871;49.418;8.752;2022-08-19T09:29:52;25.00;99.90
46137;DHT22;31871;49.418;8.752;2022-08-19T09:32:19;25.40;99.90
46137;DHT22;31871;49.418;8.752;2022-08-19T09:34:45;25.50;99.90
46137;DHT22;31871;49.418;8.752;2022-08-19T09:37:11;25.70;99.90
46137;DHT22;31871;49.418;8.752;2022-08-19T09:39:38;25.70;99.90
46137;DHT22;31871;49.418;8.752;2022-08-19T09:42:03;25.80;99.90
46137;DHT22;31871;49.418;8.752;2022-08-19T09:44:30;25.70;99.90
46137;DHT22;31871;49.418;8.752;2022-08-19T09:46:55;25.70;99.80
46137;DHT22;31871;49.418;8.752;2022-08-19T09:49:21;25.80;99.50
46137;DHT22;31871;49.418;8.752;2022-08-19T09:51:51;25.80;99.40
46137;DHT22;31871;49.418;8.752;2022-08-19T09:54:18;25.60;98.80
46137;DHT22;31871;49.418;8.752;2022-08-19T09:56:44;25.50;99.00
46137;DHT22;31871;49.418;8.752;2022-08-19T09:59:10;25.40;99.30
46137;DHT22;31871;49.418;8.752;2022-08-19T10:01:37;25.50;99.10
46137;DHT22;31871;49.418;8.752;2022-08-19T10:04:03;25.50;98.90
46137;DHT22;31871;49.418;8.752;2022-08-19T10:06:37;25.40;99.00
46137;DHT22;31871;49.418;8.752;2022-08-19T10:09:04;25.40;99.20
46137;DHT22;31871;49.418;8.752;2022-08-19T10:11:32;25.30;99.40
46137;DHT22;31871;49.418;8.752;2022-08-19T10:13:58;25.20;99.00
46137;DHT22;31871;49.418;8.752;2022-08-19T10:16:24;25.20;99.10
46137;DHT22;31871;49.418;8.752;2022-08-19T10:18:51;25.30;98.80
46137;DHT22;31871;49.418;8.752;2022-08-19T10:21:25;25.20;98.20
46137;DHT22;31871;49.418;8.752;2022-08-19T10:23:53;25.40;97.30
46137;DHT22;31871;49.418;8.752;2022-08-19T10:26:23;25.60;96.80
46137;DHT22;31871;49.418;8.752;2022-08-19T10:28:49;25.70;94.60
46137;DHT22;31871;49.418;8.752;2022-08-19T10:31:18;25.60;95.10
46137;DHT22;31871;49.418;8.752;2022-08-19T10:33:48;25.70;95.00
46137;DHT22;31871;49.418;8.752;2022-08-19T10:36:17;25.60;94.80
46137;DHT22;31871;49.418;8.752;2022-08-19T10:38:47;25.70;94.80
46137;DHT22;31871;49.418;8.752;2022-08-19T10:41:18;25.90;95.10
46137;DHT22;31871;49.418;8.752;2022-08-19T10:43:44;26.10;94.80
46137;DHT22;31871;49.418;8.752;2022-08-19T10:46:13;26.30;94.60
46137;DHT22;31871;49.418;8.752;2022-08-19T10:48:40;26.30;94.30
46137;DHT22;31871;49.418;8.752;2022-08-19T10:51:05;26.40;93.90
46137;DHT22;31871;49.418;8.752;2022-08-19T10:53:50;26.50;93.50
46137;DHT22;31871;49.418;8.752;2022-08-19T10:56:17;26.50;93.40
46137;DHT22;31871;49.418;8.752;2022-08-19T10:59:02;26.70;91.30
46137;DHT22;31871;49.418;8.752;2022-08-19T11:01:29;26.70;91.40
46137;DHT22;31871;49.418;8.752;2022-08-19T11:03:56;26.50;91.10
46137;DHT22;31871;49.418;8.752;2022-08-19T11:06:23;26.60;91.30
46137;DHT22;31871;49.418;8.752;2022-08-19T11:08:51;26.60;91.30
46137;DHT22;31871;49.418;8.752;2022-08-19T11:11:16;26.50;90.50
46137;DHT22;31871;49.418;8.752;2022-08-19T11:13:43;26.50;90.00
46137;DHT22;31871;49.418;8.752;2022-08-19T11:16:13;26.50;91.10
46137;DHT22;31871;49.418;8.752;2022-08-19T11:18:41;26.40;90.20
46137;DHT22;31871;49.418;8.752;2022-08-19T11:21:25;26.30;90.70
46137;DHT22;31871;49.418;8.752;2022-08-19T11:23:54;26.30;88.80
46137;DHT22;31871;49.418;8.752;2022-08-19T11:26:20;26.40;90.10
46137;DHT22;31871;49.418;8.752;2022-08-19T11:28:47;26.60;87.80
46137;DHT22;31871;49.418;8.752;2022-08-19T11:31:19;26.70;87.90
46137;DHT22;31871;49.418;8.752;2022-08-19T11:33:46;26.50;88.60
46137;DHT22;31871;49.418;8.752;2022-08-19T11:36:12;26.50;90.00
46137;DHT22;31871;49.418;8.752;2022-08-19T11:38:38;26.80;89.30
46137;DHT22;31871;49.418;8.752;2022-08-19T11:41:06;26.60;90.30
46137;DHT22;31871;49.418;8.752;2022-08-19T11:43:37;26.50;91.50
46137;DHT22;31871;49.418;8.752;2022-08-19T11:46:07;26.40;91.00
46137;DHT22;31871;49.418;8.752;2022-08-19T11:48:33;26.70;89.20
46137;DHT22;31871;49.418;8.752;2022-08-19T11:51:03;26.40;89.60
46137;DHT22;31871;49.418;8.752;2022-08-19T11:53:31;26.40;90.60
46137;DHT22;31871;49.418;8.752;2022-08-19T11:55:57;26.50;90.20
46137;DHT22;31871;49.418;8.752;2022-08-19T11:58:23;26.70;90.00
46137;DHT22;31871;49.418;8.752;2022-08-19T12:00:50;26.60;88.50
46137;DHT22;31871;49.418;8.752;2022-08-19T12:03:16;26.60;90.00
46137;DHT22;31871;49.418;8.752;2022-08-19T12:05:42;26.60;88.00
46137;DHT22;31871;49.418;8.752;2022-08-19T12:08:08;26.60;87.80
46137;DHT22;31871;49.418;8.752;2022-08-19T12:10:35;26.90;88.80
46137;DHT22;31871;49.418;8.752;2022-08-19T12:13:01;27.10;85.90
46137;DHT22;31871;49.418;8.752;2022-08-19T12:15:27;27.20;83.60
46137;DHT22;31871;49.418;8.752;2022-08-19T12:17:55;27.40;82.30
46137;DHT22;31871;49.418;8.752;2022-08-19T12:20:22;27.40;81.60
46137;DHT22;31871;49.418;8.752;2022-08-19T12:22:49;27.30;82.40
46137;DHT22;31871;49.418;8.752;2022-08-19T12:25:16;27.50;82.70
46137;DHT22;31871;49.418;8.752;2022-08-19T12:27:44;27.80;81.00
46137;DHT22;31871;49.418;8.752;2022-08-19T12:30:11;27.90;79.10
46137;DHT22;31871;49.418;8.752;2022-08-19T12:32:37;27.90;79.50
46137;DHT22;31871;49.418;8.752;2022-08-19T12:35:04;27.70;77.80
46137;DHT22;31871;49.418;8.752;2022-08-19T12:37:30;27.60;79.10
46137;DHT22;31871;49.418;8.752;2022-08-19T12:39:57;27.60;77.90
46137;DHT22;31871;49.418;8.752;2022-08-19T12:42:22;27.70;78.20
46137;DHT22;31871;49.418;8.752;2022-08-19T12:44:48;27.60;78.90
46137;DHT22;31871;49.418;8.752;2022-08-19T12:47:14;27.40;79.00
46137;DHT22;31871;49.418;8.752;2022-08-19T12:49:40;27.50;80.00
46137;DHT22;31871;49.418;8.752;2022-08-19T12:52:07;27.60;80.20
46137;DHT22;31871;49.418;8.752;2022-08-19T12:54:37;27.80;79.60
46137;DHT22;31871;49.418;8.752;2022-08-19T12:57:07;28.00;77.10
46137;DHT22;31871;49.418;8.752;2022-08-19T12:59:34;27.90;77.30
46137;DHT22;31871;49.418;8.752;2022-08-19T13:02:00;28.00;75.80
46137;DHT22;31871;49.418;8.752;2022-08-19T13:04:26;28.20;74.10
46137;DHT22;31871;49.418;8.752;2022-08-19T13:06:51;28.20;72.50
46137;DHT22;31871;49.418;8.752;2022-08-19T13:09:17;27.70;72.80
46137;DHT22;31871;49.418;8.752;2022-08-19T13:11:42;27.70;74.70
46137;DHT22;31871;49.418;8.752;2022-08-19T13:14:09;27.90;74.10
46137;DHT22;31871;49.418;8.752;2022-08-19T13:16:36;28.00;74.30
46137;DHT22;31871;49.418;8.752;2022-08-19T13:19:04;28.10;73.20
46137;DHT22;31871;49.418;8.752;2022-08-19T13:21:30;28.20;73.10
46137;DHT22;31871;49.418;8.752;2022-08-19T13:23:56;28.40;71.10
46137;DHT22;31871;49.418;8.752;2022-08-19T13:26:23;28.20;68.50
46137;DHT22;31871;49.418;8.752;2022-08-19T13:28:48;28.10;68.60
46137;DHT22;31871;49.418;8.752;2022-08-19T13:31:35;28.40;70.50
46137;DHT22;31871;49.418;8.752;2022-08-19T13:34:29;28.50;71.00
46137;DHT22;31871;49.418;8.752;2022-08-19T13:36:55;28.40;72.50
46137;DHT22;31871;49.418;8.752;2022-08-19T13:39:21;28.50;72.00
46137;DHT22;31871;49.418;8.752;2022-08-19T13:41:48;28.40;71.30
46137;DHT22;31871;49.418;8.752;2022-08-19T13:44:15;28.50;71.90
46137;DHT22;31871;49.418;8.752;2022-08-19T13:46:44;28.50;69.80
46137;DHT22;31871;49.418;8.752;2022-08-19T13:49:11;28.40;71.10
46137;DHT22;31871;49.418;8.752;2022-08-19T13:51:38;28.30;70.40
46137;DHT22;31871;49.418;8.752;2022-08-19T13:54:06;28.00;71.40
46137;DHT22;31871;49.418;8.752;2022-08-19T13:56:32;28.00;71.80
46137;DHT22;31871;49.418;8.752;2022-08-19T13:58:57;28.10;71.10
46137;DHT22;31871;49.418;8.752;2022-08-19T14:01:23;28.20;70.90
46137;DHT22;31871;49.418;8.752;2022-08-19T14:03:49;28.30;68.20
46137;DHT22;31871;49.418;8.752;2022-08-19T14:06:15;28.20;69.60
46137;DHT22;31871;49.418;8.752;2022-08-19T14:08:42;28.10;68.70
46137;DHT22;31871;49.418;8.752;2022-08-19T14:11:09;27.90;69.30
46137;DHT22;31871;49.418;8.752;2022-08-19T14:13:35;27.90;67.80
46137;DHT22;31871;49.418;8.752;2022-08-19T14:16:00;27.80;66.80
46137;DHT22;31871;49.418;8.752;2022-08-19T14:18:26;27.80;68.10
46137;DHT22;31871;49.418;8.752;2022-08-19T14:20:52;27.80;69.10
46137;DHT22;31871;49.418;8.752;2022-08-19T14:23:18;27.90;69.30
46137;DHT22;31871;49.418;8.752;2022-08-19T14:25:43;27.90;67.30
46137;DHT22;31871;49.418;8.752;2022-08-19T14:28:09;27.90;66.40
46137;DHT22;31871;49.418;8.752;2022-08-19T14:30:36;28.10;65.40
46137;DHT22;31871;49.418;8.752;2022-08-19T14:33:04;28.10;64.60
46137;DHT22;31871;49.418;8.752;2022-08-19T14:35:32;28.10;66.20
46137;DHT22;31871;49.418;8.752;2022-08-19T14:38:05;28.20;67.10
46137;DHT22;31871;49.418;8.752;2022-08-19T14:40:32;28.30;67.90
46137;DHT22;31871;49.418;8.752;2022-08-19T14:43:02;28.40;67.70
46137;DHT22;31871;49.418;8.752;2022-08-19T14:45:32;28.20;65.90
46137;DHT22;31871;49.418;8.752;2022-08-19T14:47:58;28.30;69.10
46137;DHT22;31871;49.418;8.752;2022-08-19T14:50:26;28.30;65.70
46137;DHT22;31871;49.418;8.752;2022-08-19T14:52:59;28.20;64.40
46137;DHT22;31871;49.418;8.752;2022-08-19T14:55:26;28.00;65.60
46137;DHT22;31871;49.418;8.752;2022-08-19T14:57:51;28.10;69.30
46137;DHT22;31871;49.418;8.752;2022-08-19T15:00:17;28.10;64.60
46137;DHT22;31871;49.418;8.752;2022-08-19T15:02:43;28.10;63.60
46137;DHT22;31871;49.418;8.752;2022-08-19T15:05:12;28.00;65.10
46137;DHT22;31871;49.418;8.752;2022-08-19T15:07:38;27.90;65.70
46137;DHT22;31871;49.418;8.752;2022-08-19T15:10:05;28.00;67.20
46137;DHT22;31871;49.418;8.752;2022-08-19T15:12:33;28.00;70.60
46137;DHT22;31871;49.418;8.752;2022-08-19T15:14:59;28.00;63.00
46137;DHT22;31871;49.418;8.752;2022-08-19T15:17:25;28.10;62.90
46137;DHT22;31871;49.418;8.752;2022-08-19T15:19:51;28.00;63.30
46137;DHT22;31871;49.418;8.752;2022-08-19T15:22:16;28.10;64.40
46137;DHT22;31871;49.418;8.752;2022-08-19T15:24:42;28.20;64.50
46137;DHT22;31871;49.418;8.752;2022-08-19T15:27:11;28.10;64.00
46137;DHT22;31871;49.418;8.752;2022-08-19T15:29:37;28.10;63.00
46137;DHT22;31871;49.418;8.752;2022-08-19T15:32:03;27.90;64.00
46137;DHT22;31871;49.418;8.752;2022-08-19T15:34:31;27.90;63.60
46137;DHT22;31871;49.418;8.752;2022-08-19T15:36:56;27.80;62.80
46137;DHT22;31871;49.418;8.752;2022-08-19T15:39:24;27.90;62.80
46137;DHT22;31871;49.418;8.752;2022-08-19T15:41:49;28.00;62.30